Time;durP1;ratioP1;P1;durP2;ratioP2;P2;SDS_P1;SDS_P2;PMS_P1;PMS_P2;Temp;Humidity;BMP_temperature;BMP_pressure;BME280_temperature;BME280_humidity;BME280_pressure;Samples;Min_cycle;Max_cycle;Signal;HPM_P1;HPM_P2
2023/03/14 00:01:25;;;;;;;11.80;2.30;;;;;;;11.09;84.26;98924.34;4881087;29;20501;-95
2023/03/14 00:03:51;;;;;;;9.48;2.47;;;;;;;11.11;84.26;98924.31;4895249;29;20044;-96
2023/03/14 00:06:20;;;;;;;6.30;1.83;;;;;;;11.11;82.03;98925.19;4882996;29;20091;-96
2023/03/14 00:08:49;;;;;;;;;;;;;;;11.14;82.93;98917.31;4883076;29;20039;-96
2023/03/14 00:11:20;;;;;;;12.00;2.00;;;;;;;11.10;82.39;98912.16;4896286;29;19919;-95
2023/03/14 00:13:50;;;;;;;5.50;1.52;;;;;;;11.07;80.75;98906.97;4880445;29;20094;-95
2023/03/14 00:16:16;;;;;;;6.13;1.60;;;;;;;11.02;80.27;98906.16;4896425;29;20099;-96
2023/03/14 00:18:45;;;;;;;4.32;1.80;;;;;;;10.99;79.98;98920.06;4882642;29;20048;-96
2023/03/14 00:21:14;;;;;;;6.32;1.33;;;;;;;10.94;79.83;98930.53;4881212;29;20029;-96
2023/03/14 00:23:43;;;;;;;6.82;1.48;;;;;;;10.92;78.92;98929.69;4897893;29;20024;-94
2023/03/14 00:26:17;;;;;;;7.95;1.63;;;;;;;10.84;79.44;98923.69;4881250;29;20049;-96
2023/03/14 00:28:46;;;;;;;7.07;1.45;;;;;;;10.79;79.33;98935.91;4898553;29;20454;-95
2023/03/14 00:31:14;;;;;;;10.45;1.98;;;;;;;10.75;77.62;98936.78;4896838;29;20035;-95
2023/03/14 00:33:46;;;;;;;6.63;1.38;;;;;;;10.70;78.05;98939.44;4896458;29;20028;-95
2023/03/14 00:36:31;;;;;;;6.82;1.20;;;;;;;10.67;78.42;98942.03;4898888;29;20083;-96
2023/03/14 00:39:00;;;;;;;7.15;1.60;;;;;;;10.66;78.74;98952.47;4912131;29;20562;-96
2023/03/14 00:41:25;;;;;;;6.75;1.63;;;;;;;10.65;79.07;98948.16;4895951;29;20123;-96
2023/03/14 00:43:53;;;;;;;6.47;1.75;;;;;;;10.63;80.18;98944.69;4911813;29;20032;-96
2023/03/14 00:46:19;;;;;;;5.10;1.20;;;;;;;10.57;79.95;98948.19;4894138;29;20029;-96
2023/03/14 00:48:49;;;;;;;10.75;1.90;;;;;;;10.57;80.05;98945.59;4894271;29;20028;-96
2023/03/14 00:51:15;;;;;;;4.28;1.25;;;;;;;10.57;78.88;98961.22;4894033;29;20033;-96
2023/03/14 00:53:44;;;;;;;7.60;1.75;;;;;;;10.57;79.24;98962.09;4893622;29;20039;-96
2023/03/14 00:56:16;;;;;;;7.25;1.50;;;;;;;10.58;78.89;98947.31;4909876;29;20032;-96
2023/03/14 00:58:47;;;;;;;7.93;1.50;;;;;;;10.60;78.64;98949.06;4912406;29;20040;-96
2023/03/14 01:01:17;;;;;;;7.60;1.33;;;;;;;10.60;78.37;98943.84;4912941;29;20103;-96
2023/03/14 01:03:59;;;;;;;9.82;1.98;;;;;;;10.59;79.33;98941.25;4911020;29;20145;-96
2023/03/14 01:06:30;;;;;;;6.32;1.40;;;;;;;10.58;78.73;98935.16;4910987;29;20036;-96
2023/03/14 01:09:01;;;;;;;10.85;1.58;;;;;;;10.57;79.07;98938.66;4910488;29;20032;-96
2023/03/14 01:11:34;;;;;;;7.15;1.60;;;;;;;10.58;78.73;98935.16;4906532;29;20344;-96
2023/03/14 01:14:00;;;;;;;7.43;1.40;;;;;;;10.55;78.96;98935.19;4908811;29;20036;-96
2023/03/14 01:16:30;;;;;;;6.03;1.30;;;;;;;10.55;78.96;98940.41;4899571;29;20032;-96
2023/03/14 01:19:03;;;;;;;8.00;1.45;;;;;;;10.53;79.13;98934.34;4913645;29;20028;-96
2023/03/14 01:21:39;;;;;;;8.02;1.55;;;;;;;10.51;79.46;98937.81;4912751;29;20032;-96
2023/03/14 01:24:10;;;;;;;6.00;1.10;;;;;;;10.48;79.57;98933.50;4895735;29;20340;-96
2023/03/14 01:26:44;;;;;;;7.78;1.40;;;;;;;10.47;79.01;98925.69;4910827;29;20033;-96
2023/03/14 01:29:09;;;;;;;8.75;1.58;;;;;;;10.45;79.31;98923.09;4908577;29;20047;-96
2023/03/14 01:31:35;;;;;;;4.85;1.10;;;;;;;10.45;79.41;98920.50;4907917;29;20024;-96
2023/03/14 01:34:01;;;;;;;6.28;1.30;;;;;;;10.43;79.13;98920.53;4908155;29;20033;-96
2023/03/14 01:36:29;;;;;;;5.78;1.20;;;;;;;10.42;78.87;98917.94;4905804;29;20042;-95
2023/03/14 01:38:55;;;;;;;7.37;1.37;;;;;;;10.40;79.79;98924.91;4895273;29;20036;-95
2023/03/14 01:41:25;;;;;;;7.25;1.33;;;;;;;10.38;79.22;98922.28;4879772;29;20043;-95
2023/03/14 01:43:53;;;;;;;5.18;1.20;;;;;;;10.38;79.26;98905.81;4877896;29;20064;-93
2023/03/14 01:46:41;;;;;;;7.00;1.40;;;;;;;10.38;79.49;98905.81;4895119;29;20031;-95
2023/03/14 01:49:15;;;;;;;5.82;1.20;;;;;;;10.35;79.47;98896.28;4895137;29;20122;-94
2023/03/14 01:51:49;;;;;;;7.50;1.42;;;;;;;10.33;79.93;98897.16;4878461;29;20075;-95
2023/03/14 01:54:26;;;;;;;5.95;1.20;;;;;;;10.33;80.59;98881.53;4895601;29;20032;-95
2023/03/14 01:56:57;;;;;;;5.95;1.50;;;;;;;10.31;80.62;98886.75;4878930;29;20033;-95
2023/03/14 01:59:25;;;;;;;7.20;1.80;;;;;;;10.32;80.61;98882.41;4894983;29;20016;-95
2023/03/14 02:02:02;;;;;;;5.20;1.23;;;;;;;10.31;80.78;98878.06;4894477;29;20040;-95
2023/03/14 02:04:33;;;;;;;10.98;1.88;;;;;;;10.29;80.97;98875.47;4878923;29;20658;-95
2023/03/14 02:07:08;;;;;;;7.57;1.92;;;;;;;10.30;81.00;98881.53;4878604;29;20054;-94
2023/03/14 02:09:42;;;;;;;9.23;2.00;;;;;;;10.29;81.33;98885.88;4896067;29;20061;-94
2023/03/14 02:12:16;;;;;;;5.47;1.50;;;;;;;10.27;81.27;98878.06;4894699;29;20135;-95
2023/03/14 02:14:47;;;;;;;8.85;2.05;;;;;;;10.26;81.15;98883.28;4876576;29;20033;-95
2023/03/14 02:17:17;;;;;;;10.68;2.03;;;;;;;10.25;81.85;98887.66;4878789;29;20033;-96
2023/03/14 02:20:09;;;;;;;7.65;1.80;;;;;;;10.22;81.89;98879.84;4894324;29;20028;-95
2023/03/14 02:22:38;;;;;;;8.82;1.70;;;;;;;10.24;82.06;98874.66;4878966;29;20116;-95
2023/03/14 02:25:18;;;;;;;9.82;2.00;;;;;;;10.23;82.36;98884.19;4892295;29;20479;-95
2023/03/14 02:27:44;;;;;;;10.45;2.00;;;;;;;10.22;82.56;98879.84;4894363;29;20048;-95
2023/03/14 02:30:32;;;;;;;10.45;2.10;;;;;;;10.21;82.55;98879.84;4878621;29;20016;-95
2023/03/14 02:33:06;;;;;;;9.70;1.90;;;;;;;10.20;82.71;98868.59;4876922;29;20036;-94
2023/03/14 02:35:38;;;;;;;10.90;2.03;;;;;;;10.19;82.83;98863.38;4894346;29;20103;-95
2023/03/14 02:38:20;;;;;;;9.73;2.08;;;;;;;10.16;82.87;98863.41;4893536;29;20614;-95
2023/03/14 02:40:46;;;;;;;7.82;1.75;;;;;;;10.13;82.71;98866.03;4878703;29;20029;-95
2023/03/14 02:43:18;;;;;;;11.23;2.40;;;;;;;10.09;83.21;98858.25;4894506;29;20028;-95
2023/03/14 02:45:45;;;;;;;10.10;1.80;;;;;;;10.08;83.40;98860.88;4892247;29;20039;-95
2023/03/14 02:48:22;;;;;;;9.57;2.10;;;;;;;10.06;83.82;98862.59;4894477;29;20482;-94
2023/03/14 02:50:56;;;;;;;7.95;2.63;;;;;;;10.06;83.74;98860.00;4877847;29;20052;-94
2023/03/14 02:53:37;;;;;;;11.05;2.08;;;;;;;10.06;83.59;98862.59;4879181;29;20041;-95
2023/03/14 02:56:03;;;;;;;8.35;2.30;;;;;;;10.07;83.82;98862.59;4892884;29;20104;-92
2023/03/14 02:58:31;;;;;;;11.25;2.17;;;;;;;10.07;83.70;98864.34;4879315;29;20037;-92
2023/03/14 03:01:03;;;;;;;7.28;2.03;;;;;;;10.09;84.10;98865.19;4878121;29;20036;-95
2023/03/14 03:03:31;;;;;;;10.30;2.55;;;;;;;10.08;84.04;98871.28;4893365;29;20033;-95
2023/03/14 03:06:02;;;;;;;10.05;2.08;;;;;;;10.07;84.01;98872.16;4895158;29;20037;-95
2023/03/14 03:08:28;;;;;;;8.80;2.08;;;;;;;10.08;84.14;98874.75;4877226;29;20032;-95
2023/03/14 03:10:57;;;;;;;7.25;1.95;;;;;;;10.09;84.45;98873.00;4878470;29;20031;-95
2023/03/14 03:13:28;;;;;;;8.90;1.80;;;;;;;10.07;84.39;98875.59;4891571;29;20043;-95
2023/03/14 03:15:57;;;;;;;5.55;1.55;;;;;;;10.07;84.49;98869.53;4892989;29;20024;-94
2023/03/14 03:18:25;;;;;;;11.23;2.28;;;;;;;10.08;84.26;98873.88;4876323;29;20020;-95
2023/03/14 03:21:03;;;;;;;7.28;2.17;;;;;;;10.07;84.37;98860.00;4891868;29;21322;-94
2023/03/14 03:23:31;;;;;;;11.03;1.90;;;;;;;10.06;84.33;98862.59;4893165;29;20031;-95
2023/03/14 03:26:00;;;;;;;6.97;1.85;;;;;;;10.06;84.22;98857.41;4878052;29;20288;-95
2023/03/14 03:28:27;;;;;;;8.77;2.03;;;;;;;10.07;84.08;98851.34;4893965;29;20052;-95
2023/03/14 03:30:53;;;;;;;8.68;1.70;;;;;;;10.06;84.19;98847.00;4876555;29;20296;-95
2023/03/14 03:33:23;;;;;;;10.02;1.98;;;;;;;10.05;83.85;98853.06;4894847;29;20083;-95
2023/03/14 03:35:52;;;;;;;8.10;1.65;;;;;;;10.04;84.19;98857.41;4896035;29;20043;-93
2023/03/14 03:38:30;;;;;;;8.70;1.57;;;;;;;10.05;84.19;98858.25;4877689;29;20039;-94
2023/03/14 03:40:55;;;;;;;8.10;1.58;;;;;;;10.03;84.05;98854.81;4892769;29;20033;-95
2023/03/14 03:43:21;;;;;;;6.93;1.50;;;;;;;10.04;83.86;98857.41;4877718;29;20447;-95
2023/03/14 03:45:52;;;;;;;6.35;1.70;;;;;;;10.02;83.90;98845.28;4878426;29;20032;-95
2023/03/14 03:48:22;;;;;;;8.60;1.83;;;;;;;10.02;83.96;98845.28;4892293;29;20036;-95
2023/03/14 03:50:48;;;;;;;6.30;1.30;;;;;;;10.01;84.38;98844.44;4891261;29;20104;-95
2023/03/14 03:53:19;;;;;;;6.40;1.80;;;;;;;10.00;84.27;98839.25;4893477;29;20040;-95
2023/03/14 03:55:44;;;;;;;8.63;1.40;;;;;;;9.98;83.98;98838.38;4877228;29;20103;-95
2023/03/14 03:58:10;;;;;;;9.93;2.05;;;;;;;9.97;84.21;98837.50;4893398;29;20141;-94
2023/03/14 04:00:38;;;;;;;7.80;1.42;;;;;;;9.98;84.38;98843.56;4894325;29;20035;-95
2023/03/14 04:03:07;;;;;;;6.45;1.60;;;;;;;9.97;85.18;98844.47;4893941;29;20032;-94
2023/03/14 04:05:34;;;;;;;7.10;1.45;;;;;;;9.92;86.66;98844.47;4877672;29;20052;-94
2023/03/14 04:08:00;;;;;;;6.72;1.30;;;;;;;9.84;87.16;98838.47;4877729;29;20143;-95
2023/03/14 04:10:28;;;;;;;6.72;1.30;;;;;;;9.78;87.31;98836.75;4880431;29;20541;-95
2023/03/14 04:12:56;;;;;;;8.73;1.75;;;;;;;9.71;87.46;98833.31;4881777;29;20043;-96
2023/03/14 04:15:25;;;;;;;6.00;1.45;;;;;;;9.69;87.18;98831.59;4881561;29;20033;-95
2023/03/14 04:18:02;;;;;;;8.57;1.50;;;;;;;9.68;86.81;98835.09;4896207;29;20044;-95
2023/03/14 04:20:27;;;;;;;7.93;1.50;;;;;;;9.65;86.62;98828.16;4879980;29;20028;-95
2023/03/14 04:22:55;;;;;;;9.15;2.08;;;;;;;9.63;86.85;98827.31;4896442;29;20044;-96
2023/03/14 04:25:20;;;;;;;8.32;1.75;;;;;;;9.60;86.74;98831.66;4896821;29;20115;-95
2023/03/14 04:27:49;;;;;;;7.53;1.42;;;;;;;9.60;87.19;98827.31;4897305;29;20267;-95
2023/03/14 04:30:25;;;;;;;7.97;1.50;;;;;;;9.60;87.66;98826.44;4892745;29;20032;-95
2023/03/14 04:32:50;;;;;;;4.32;1.08;;;;;;;9.59;88.14;98828.19;4878662;29;20121;-96
2023/03/14 04:35:15;;;;;;;4.97;1.30;;;;;;;9.57;88.69;98825.59;4893617;29;20172;-95
2023/03/14 04:37:43;;;;;;;5.47;1.20;;;;;;;9.55;89.48;98824.72;4881030;29;20032;-95
2023/03/14 04:40:14;;;;;;;6.72;1.30;;;;;;;9.56;89.86;98823.88;4880588;29;20516;-95
2023/03/14 04:42:39;;;;;;;8.00;1.40;;;;;;;9.55;90.04;98824.72;4881660;29;20493;-94
2023/03/14 04:45:20;;;;;;;;;;;;;;;;;;;;;
2023/03/14 04:47:59;;;;;;;;;;;;;;;;;;;;;
2023/03/14 04:50:25;;;;;;;5.70;1.30;;;;;;;9.48;91.76;98819.59;4897378;29;20032;-94
2023/03/14 04:52:50;;;;;;;5.88;1.50;;;;;;;9.47;92.87;98821.34;4896908;29;20127;-95
2023/03/14 04:55:16;;;;;;;3.38;1.15;;;;;;;9.44;93.86;98826.53;4881033;29;20028;-94
2023/03/14 04:57:44;;;;;;;6.72;1.48;;;;;;;9.37;95.41;98830.91;4881220;29;20028;-95
2023/03/14 05:00:12;;;;;;;4.95;1.20;;;;;;;9.32;96.47;98822.25;4880326;29;20032;-95
2023/03/14 05:02:37;;;;;;;4.10;1.58;;;;;;;9.26;97.63;98827.47;4880620;29;20067;-93
2023/03/14 05:05:06;;;;;;;4.38;1.70;;;;;;;9.18;98.87;98830.09;4880664;29;20052;-95
2023/03/14 05:07:34;;;;;;;4.80;1.73;;;;;;;9.15;99.10;98824.94;4895641;29;20041;-95
2023/03/14 05:10:02;;;;;;;5.95;1.50;;;;;;;9.13;99.27;98829.25;4896910;29;20052;-95
2023/03/14 05:12:30;;;;;;;4.78;1.85;;;;;;;9.10;99.67;98831.00;4896796;29;20107;-94
2023/03/14 05:14:55;;;;;;;5.95;1.60;;;;;;;9.10;100.00;98834.44;4880985;29;20491;-95
2023/03/14 05:17:27;;;;;;;6.82;1.60;;;;;;;9.08;100.00;98831.00;4878902;29;20025;-94
2023/03/14 05:19:57;;;;;;;6.10;1.95;;;;;;;9.05;100.00;98828.38;4881507;29;20582;-95
2023/03/14 05:22:25;;;;;;;3.75;1.35;;;;;;;9.03;100.00;98827.53;4880013;29;20040;-95
2023/03/14 05:24:56;;;;;;;5.30;1.60;;;;;;;9.02;100.00;98824.09;4897216;29;20028;-95
2023/03/14 05:27:30;;;;;;;5.93;1.75;;;;;;;9.05;100.00;98825.78;4879222;29;20111;-95
2023/03/14 05:30:00;;;;;;;4.93;1.75;;;;;;;9.04;100.00;98826.69;4879879;29;20064;-95
2023/03/14 05:32:26;;;;;;;7.43;2.05;;;;;;;9.02;100.00;98813.72;4895336;29;20056;-95
2023/03/14 05:34:58;;;;;;;8.15;2.42;;;;;;;9.04;100.00;98817.16;4879458;29;20451;-95
2023/03/14 05:37:26;;;;;;;5.85;2.15;;;;;;;9.03;100.00;98798.97;4894983;29;20079;-95
2023/03/14 05:39:51;;;;;;;7.07;2.38;;;;;;;9.03;100.00;98805.03;4878107;29;20041;-95
2023/03/14 05:42:20;;;;;;;9.15;2.65;;;;;;;9.03;100.00;98805.03;4895563;29;20032;-95
2023/03/14 05:44:48;;;;;;;7.83;2.30;;;;;;;9.03;100.00;98807.63;4895201;29;20025;-96
2023/03/14 05:47:14;;;;;;;6.32;2.22;;;;;;;9.04;100.00;98803.31;4879286;29;20099;-94
2023/03/14 05:49:39;;;;;;;6.70;2.53;;;;;;;9.05;100.00;98805.00;4878617;29;20123;-96
2023/03/14 05:52:04;;;;;;;9.98;2.60;;;;;;;9.05;100.00;98805.91;4878761;29;20055;-93
2023/03/14 05:54:32;;;;;;;9.18;2.50;;;;;;;9.04;100.00;98796.38;4893960;29;20029;-95
2023/03/14 05:56:58;;;;;;;7.25;2.63;;;;;;;9.04;100.00;98795.50;4878853;29;20027;-95
2023/03/14 05:59:29;;;;;;;7.18;2.53;;;;;;;9.03;100.00;98805.03;4879195;29;20028;-95
2023/03/14 06:01:54;;;;;;;6.25;2.30;;;;;;;9.02;100.00;98797.22;4896027;29;20040;-96
2023/03/14 06:04:19;;;;;;;10.00;3.00;;;;;;;9.01;100.00;98790.34;4893700;29;20036;-95
2023/03/14 06:06:45;;;;;;;7.13;2.42;;;;;;;9.01;100.00;98792.94;4876855;29;20542;-95
2023/03/14 06:09:19;;;;;;;8.30;2.78;;;;;;;9.00;100.00;98792.03;4879806;29;20032;-94
2023/03/14 06:11:47;;;;;;;9.25;2.90;;;;;;;9.02;100.00;98786.84;4896278;29;20435;-95
2023/03/14 06:14:12;;;;;;;8.13;2.70;;;;;;;9.01;100.00;98779.94;4878715;29;20048;-95
2023/03/14 06:16:40;;;;;;;8.65;3.30;;;;;;;9.02;100.00;98789.44;4877577;29;20099;-94
2023/03/14 06:19:11;;;;;;;8.38;2.97;;;;;;;9.00;100.00;98797.25;4895913;29;20111;-95
2023/03/14 06:21:37;;;;;;;8.43;3.33;;;;;;;9.01;100.00;98790.34;4893685;29;20092;-93
2023/03/14 06:24:03;;;;;;;7.82;3.10;;;;;;;9.00;100.00;98799.84;4895072;29;20467;-95
2023/03/14 06:26:34;;;;;;;9.80;3.22;;;;;;;9.02;100.00;98797.22;4895370;29;20685;-94
2023/03/14 06:29:03;;;;;;;10.85;4.35;;;;;;;9.01;100.00;98796.38;4893560;29;20032;-96
2023/03/14 06:31:37;;;;;;;8.65;3.45;;;;;;;9.03;100.00;98794.63;4880329;29;20025;-94
2023/03/14 06:34:03;;;;;;;10.68;3.55;;;;;;;9.04;100.00;98791.16;4893637;29;20039;-95
2023/03/14 06:36:39;;;;;;;10.32;3.70;;;;;;;9.05;100.00;98799.81;4877947;29;20048;-95
2023/03/14 06:39:05;;;;;;;10.07;3.72;;;;;;;9.08;100.00;98805.03;4894993;29;20634;-95
2023/03/14 06:41:33;;;;;;;10.45;4.07;;;;;;;9.09;100.00;98806.72;4879059;29;20115;-94
2023/03/14 06:43:59;;;;;;;11.80;4.18;;;;;;;9.12;100.00;98814.50;4879382;29;20450;-96
2023/03/14 06:46:27;;;;;;;13.25;4.40;;;;;;;9.13;100.00;98807.59;4893795;29;20169;-94
2023/03/14 06:48:53;;;;;;;9.85;3.90;;;;;;;9.14;100.00;98806.72;4891624;29;20954;-94
2023/03/14 06:51:21;;;;;;;10.77;4.40;;;;;;;9.15;100.00;98813.66;4894607;29;20045;-94
2023/03/14 06:53:46;;;;;;;11.32;4.60;;;;;;;9.17;100.00;98815.38;4895975;29;20073;-95
2023/03/14 06:56:11;;;;;;;10.85;4.07;;;;;;;9.23;100.00;98811.91;4880015;29;20056;-95
2023/03/14 06:58:37;;;;;;;9.90;4.22;;;;;;;9.27;100.00;98817.94;4878598;29;20036;-95
2023/03/14 07:01:03;;;;;;;10.63;4.30;;;;;;;9.31;100.00;98814.44;4894794;29;20029;-96
2023/03/14 07:03:38;;;;;;;10.50;4.10;;;;;;;9.35;100.00;98818.78;4881185;29;20032;-96
2023/03/14 07:06:04;;;;;;;11.40;4.03;;;;;;;9.39;100.00;98831.75;4878468;29;20059;-96
2023/03/14 07:08:30;;;;;;;10.73;4.18;;;;;;;9.40;100.00;98830.03;4879264;29;20595;-96
2023/03/14 07:10:57;;;;;;;11.40;3.95;;;;;;;9.40;100.00;98830.03;4895018;29;20483;-95
2023/03/14 07:13:22;;;;;;;13.13;4.30;;;;;;;9.39;100.00;98831.75;4895203;29;20029;-95
2023/03/14 07:15:57;;;;;;;10.30;4.00;;;;;;;9.39;100.00;98841.28;4878765;29;20028;-96
2023/03/14 07:18:23;;;;;;;11.73;4.03;;;;;;;9.37;100.00;98832.63;4879671;29;20024;-95
2023/03/14 07:20:48;;;;;;;10.48;3.95;;;;;;;9.37;100.00;98849.09;4895309;29;20028;-96
2023/03/14 07:23:24;;;;;;;12.48;4.45;;;;;;;9.37;100.00;98862.09;4896817;29;20031;-96
2023/03/14 07:25:53;;;;;;;12.35;4.18;;;;;;;9.37;100.00;98871.59;4895032;29;20115;-96
2023/03/14 07:28:19;;;;;;;9.50;3.70;;;;;;;9.34;100.00;98923.59;4877252;29;20052;-96
2023/03/14 07:30:49;;;;;;;6.97;2.13;;;;;;;9.18;100.00;98947.03;4894392;29;20056;-95
2023/03/14 07:33:17;;;;;;;4.38;1.20;;;;;;;8.91;100.00;98960.03;4894753;29;20760;-95
2023/03/14 07:35:42;;;;;;;3.60;1.00;;;;;;;8.59;100.00;98960.88;4878389;29;20021;-95
2023/03/14 07:38:11;;;;;;;2.70;0.80;;;;;;;8.35;100.00;98972.94;4878932;29;20031;-95
2023/03/14 07:40:36;;;;;;;2.10;0.60;;;;;;;8.20;100.00;98984.13;4893115;29;20487;-95
2023/03/14 07:43:02;;;;;;;2.00;0.68;;;;;;;8.06;100.00;98989.28;4880779;29;20039;-94
2023/03/14 07:45:30;;;;;;;1.75;0.75;;;;;;;7.93;100.00;99003.06;4898496;29;20103;-94
2023/03/14 07:47:57;;;;;;;5.38;0.70;;;;;;;7.83;100.00;99009.91;4879894;29;20037;-95
2023/03/14 07:50:25;;;;;;;3.78;0.82;;;;;;;7.75;100.00;99004.69;4896949;29;20032;-95
2023/03/14 07:52:51;;;;;;;3.53;1.10;;;;;;;7.71;100.00;99023.69;4879969;29;20051;-94
2023/03/14 07:55:19;;;;;;;3.53;1.30;;;;;;;7.63;100.00;99039.19;4895958;29;20032;-95
2023/03/14 07:57:49;;;;;;;4.40;1.40;;;;;;;7.55;100.00;99045.19;4894192;29;20033;-96
2023/03/14 08:00:21;;;;;;;2.92;1.17;;;;;;;7.51;100.00;99046.88;4904445;29;20044;-96
2023/03/14 08:03:08;;;;;;;4.65;1.30;;;;;;;7.50;100.00;99052.91;4906048;29;20013;-96
2023/03/14 08:05:37;;;;;;;6.82;2.50;;;;;;;7.48;100.00;99063.28;4885858;23;20063;-61
2023/03/14 08:08:03;;;;;;;;;;;;;;;7.52;100.00;99076.25;4901841;29;20429;-61
2023/03/14 08:10:28;;;;;;;4.03;1.42;;;;;;;7.48;100.00;99078.81;4908464;29;19922;-61
2023/03/14 08:12:55;;;;;;;5.25;2.00;;;;;;;7.48;100.00;99086.59;4903297;29;20032;-61
2023/03/14 08:15:21;;;;;;;4.55;2.20;;;;;;;7.47;100.00;99096.94;4910368;29;20032;-61
2023/03/14 08:17:50;;;;;;;5.35;2.70;;;;;;;7.47;100.00;99108.19;4911317;29;20162;-61
2023/03/14 08:20:23;;;;;;;6.88;3.10;;;;;;;7.45;100.00;99114.22;4911294;29;20519;-61
2023/03/14 08:22:49;;;;;;;7.20;3.20;;;;;;;7.44;100.00;99126.31;4911510;29;20594;-61
2023/03/14 08:25:14;;;;;;;5.60;2.70;;;;;;;7.41;100.00;99136.63;4910384;29;20047;-61
2023/03/14 08:27:41;;;;;;;5.72;2.10;;;;;;;7.39;100.00;99153.91;4909733;29;20480;-61
2023/03/14 08:30:09;;;;;;;6.50;2.20;;;;;;;7.39;100.00;99161.69;4909569;29;20028;-61
2023/03/14 08:32:34;;;;;;;5.65;2.15;;;;;;;7.38;100.00;99170.28;4908456;29;20080;-61
2023/03/14 08:34:59;;;;;;;6.40;2.25;;;;;;;7.41;100.00;99180.69;4910606;29;20031;-61
2023/03/14 08:37:24;;;;;;;7.38;2.50;;;;;;;7.43;100.00;99186.78;4910038;29;20036;-64
2023/03/14 08:39:51;;;;;;;6.07;2.00;;;;;;;7.43;100.00;99194.53;4910956;29;20096;-64
2023/03/14 08:42:16;;;;;;;4.45;1.75;;;;;;;7.42;100.00;99202.31;4909736;29;20119;-64
2023/03/14 08:44:42;;;;;;;5.65;1.60;;;;;;;7.40;100.00;99204.88;4910498;29;20091;-65
2023/03/14 08:47:07;;;;;;;6.40;1.80;;;;;;;7.37;100.00;99204.84;4909349;29;20541;-64
2023/03/14 08:49:32;;;;;;;4.97;1.67;;;;;;;7.35;100.00;99222.09;4910369;29;20377;-64
2023/03/14 08:51:58;;;;;;;8.18;1.92;;;;;;;7.31;100.00;99228.97;4910032;29;20028;-64
2023/03/14 08:54:24;;;;;;;5.65;1.80;;;;;;;7.28;100.00;99241.00;4909502;29;20024;-64
2023/03/14 08:56:49;;;;;;;7.70;2.13;;;;;;;7.27;100.00;99244.44;4909652;29;20060;-64
2023/03/14 08:59:14;;;;;;;9.05;2.38;;;;;;;7.23;100.00;99250.47;4910214;29;20078;-64
2023/03/14 09:01:40;;;;;;;10.75;2.78;;;;;;;7.21;100.00;99254.75;4909161;29;20035;-65
2023/03/14 09:04:06;;;;;;;11.38;3.20;;;;;;;7.18;100.00;99263.34;4909416;29;20036;-64
2023/03/14 09:06:31;;;;;;;8.07;3.30;;;;;;;7.14;100.00;99267.63;4893494;29;20091;-64
2023/03/14 09:08:56;;;;;;;9.18;3.85;;;;;;;7.16;100.00;99287.50;4909882;29;20070;-64
2023/03/14 09:11:22;;;;;;;8.48;3.58;;;;;;;7.18;100.00;99293.56;4910130;29;20050;-64
2023/03/14 09:13:48;;;;;;;8.70;3.33;;;;;;;7.19;100.00;99300.50;4910909;23;20064;-95
2023/03/14 09:16:17;;;;;;;8.30;3.55;;;;;;;7.22;100.00;99303.13;4873028;29;20028;-94
2023/03/14 09:18:45;;;;;;;9.40;4.13;;;;;;;7.25;100.00;99310.94;4880238;29;20029;-96
2023/03/14 09:21:10;;;;;;;10.50;4.37;;;;;;;7.27;100.00;99328.25;4895468;29;20105;-95
2023/03/14 09:23:38;;;;;;;10.60;4.03;;;;;;;7.29;100.00;99346.38;4890877;29;20300;-95
2023/03/14 09:26:04;;;;;;;11.32;3.90;;;;;;;7.30;100.00;99363.69;4883714;29;20410;-95
2023/03/14 09:28:32;;;;;;;9.10;3.17;;;;;;;7.30;100.00;99371.47;4893382;29;20028;-94
2023/03/14 09:31:00;;;;;;;5.90;2.60;;;;;;;7.27;100.00;99376.56;4879398;29;20036;-94
2023/03/14 09:33:34;;;;;;;4.70;1.40;;;;;;;7.23;100.00;99380.00;4878801;29;20028;-92
2023/03/14 09:35:59;;;;;;;5.50;1.42;;;;;;;7.18;100.00;99395.44;4878645;29;20111;-92
2023/03/14 09:38:25;;;;;;;3.13;1.20;;;;;;;7.10;100.00;99412.63;4894892;29;20119;-92
2023/03/14 09:40:53;;;;;;;3.67;1.00;;;;;;;7.05;100.00;99434.97;4895361;29;20036;-94
2023/03/14 09:43:25;;;;;;;3.58;0.80;;;;;;;6.99;100.00;99451.31;4878381;29;20036;-95
2023/03/14 09:45:51;;;;;;;2.85;0.70;;;;;;;6.88;100.00;99450.25;4879659;29;20104;-94
2023/03/14 09:48:26;;;;;;;2.03;0.60;;;;;;;6.78;100.00;99468.25;4896270;29;20036;-94
2023/03/14 09:50:56;;;;;;;4.93;0.85;;;;;;;6.72;100.00;99477.59;4869850;29;20044;-95
2023/03/14 09:53:27;;;;;;;2.10;0.60;;;;;;;6.67;99.31;99498.25;4901045;23;20174;-64
2023/03/14 09:55:55;;;;;;;2.90;0.55;;;;;;;6.59;98.96;99511.06;4902354;29;20031;-64
2023/03/14 09:58:22;;;;;;;1.85;0.50;;;;;;;6.57;100.00;99517.03;4900596;29;20034;-64
2023/03/14 10:00:50;;;;;;;1.70;0.55;;;;;;;6.63;99.43;99530.09;4900350;29;20496;-64
2023/03/14 10:03:34;;;;;;;2.33;0.63;;;;;;;6.72;99.85;99537.16;4901094;29;20047;-64
2023/03/14 10:06:00;;;;;;;4.90;0.90;;;;;;;6.86;100.00;99552.94;4901798;29;20140;-64
2023/03/14 10:08:25;;;;;;;5.00;0.80;;;;;;;7.00;98.64;99563.53;4899094;29;20055;-64
2023/03/14 10:10:52;;;;;;;4.20;0.73;;;;;;;7.08;98.68;99574.88;4902015;29;20032;-64
2023/03/14 10:13:25;;;;;;;4.80;0.95;;;;;;;7.11;96.63;99586.19;4902013;29;20032;-64
2023/03/14 10:16:01;;;;;;;4.72;1.00;;;;;;;7.19;99.41;99599.25;4899365;29;20432;-64
2023/03/14 10:18:30;;;;;;;8.25;1.27;;;;;;;7.29;98.03;99598.56;4880746;29;20036;-64
2023/03/14 10:21:25;;;;;;;6.47;1.10;;;;;;;7.36;96.68;99629.75;4884239;29;20131;-64
2023/03/14 10:23:50;;;;;;;4.47;0.88;;;;;;;7.35;95.77;99641.00;4883752;29;20036;-64
2023/03/14 10:26:23;;;;;;;4.95;1.45;;;;;;;7.31;94.70;99653.00;4884156;29;20519;-61
2023/03/14 10:28:52;;;;;;;4.30;0.90;;;;;;;7.32;95.96;99649.56;4882100;29;20615;-62
2023/03/14 10:31:19;;;;;;;7.32;1.30;;;;;;;7.30;94.03;99664.25;4882341;29;20029;-62
2023/03/14 10:34:01;;;;;;;8.40;1.17;;;;;;;7.27;93.72;99683.19;4882984;29;20044;-61
2023/03/14 10:36:29;;;;;;;9.50;1.88;;;;;;;7.26;91.89;99698.69;4882512;29;20091;-62
2023/03/14 10:39:16;;;;;;;6.88;1.23;;;;;;;7.24;91.98;99701.28;4883187;29;20128;-62
2023/03/14 10:41:47;;;;;;;7.07;1.40;;;;;;;7.23;93.00;99709.00;4885840;29;20037;-61
2023/03/14 10:44:15;;;;;;;13.27;2.13;;;;;;;7.14;88.37;99725.25;4883365;29;20032;-62
2023/03/14 10:46:40;;;;;;;11.63;2.25;;;;;;;7.03;90.73;99737.97;4882340;29;20485;-62
2023/03/14 10:49:06;;;;;;;7.30;1.27;;;;;;;6.97;90.03;99743.03;4883429;29;20032;-61
2023/03/14 10:51:32;;;;;;;10.07;1.70;;;;;;;6.92;89.46;99745.53;4883680;29;20779;-61
2023/03/14 10:54:13;;;;;;;6.65;1.63;;;;;;;6.90;92.08;99760.16;4901880;29;20032;-61
2023/03/14 10:56:39;;;;;;;10.02;2.03;;;;;;;6.94;93.72;99766.28;4902538;29;20055;-64
2023/03/14 10:59:12;;;;;;;12.05;2.28;;;;;;;6.94;92.04;99780.09;4901492;29;20928;-64
2023/03/14 11:01:44;;;;;;;11.52;1.88;;;;;;;7.01;92.85;99786.28;4902208;29;20125;-64
2023/03/14 11:04:21;;;;;;;14.52;1.90;;;;;;;7.10;91.95;99794.25;4901111;29;20093;-64
2023/03/14 11:07:03;;;;;;;13.23;1.90;;;;;;;7.18;91.61;99809.94;4900395;29;20037;-64
2023/03/14 11:09:42;;;;;;;16.48;2.13;;;;;;;7.27;92.21;99815.31;4902014;29;20522;-64
2023/03/14 11:12:39;;;;;;;8.15;1.65;;;;;;;7.36;92.96;99825.00;4901817;29;20032;-65
2023/03/14 11:15:42;;;;;;;14.15;2.10;;;;;;;7.40;92.16;99832.00;4901816;29;20179;-64
2023/03/14 11:18:36;;;;;;;13.57;1.98;;;;;;;7.47;91.34;99845.94;4900941;29;20107;-64
2023/03/14 11:21:23;;;;;;;13.95;2.00;;;;;;;7.51;91.91;99863.31;4902907;29;20032;-64
2023/03/14 11:24:12;;;;;;;10.57;1.63;;;;;;;7.48;89.24;99871.03;4900747;29;20098;-64
2023/03/14 11:26:48;;;;;;;13.93;1.90;;;;;;;7.40;89.12;99869.97;4901739;29;20701;-63
2023/03/14 11:29:21;;;;;;;15.73;2.20;;;;;;;7.32;90.02;99886.25;4901847;29;20028;-64
2023/03/14 11:31:47;;;;;;;14.70;2.33;;;;;;;7.27;90.21;99897.34;4900926;29;20012;-64
2023/03/14 11:34:44;;;;;;;11.43;1.95;;;;;;;7.23;91.54;99921.47;4900183;29;20500;-64
2023/03/14 11:37:21;;;;;;;11.70;1.85;;;;;;;6.98;91.20;99933.88;4901363;29;20075;-61
2023/03/14 11:39:58;;;;;;;14.05;1.90;;;;;;;6.60;90.08;99938.97;4899431;29;20035;-61
2023/03/14 11:42:26;;;;;;;12.10;1.90;;;;;;;6.35;89.37;99938.34;4900728;29;20033;-61
2023/03/14 11:44:54;;;;;;;16.25;2.80;;;;;;;6.26;91.97;99944.16;4899760;29;20400;-61
2023/03/14 11:47:29;;;;;;;9.53;1.70;;;;;;;6.21;91.61;99945.75;4900820;29;20313;-62
2023/03/14 11:50:26;;;;;;;16.35;2.40;;;;;;;6.21;91.84;99944.88;4900697;29;20296;-61